sensor_id;sensor_type;location;lat;lon;timestamp;P1;durP1;ratioP1;P2;durP2;ratioP2
4112;SDS011;2070;51.042;7.056;2023-04-15T00:00:57;8.43;;;2.10;;
4112;SDS011;2070;51.042;7.056;2023-04-15T00:03:23;9.53;;;2.70;;
4112;SDS011;2070;51.042;7.056;2023-04-15T00:05:48;9.53;;;2.63;;
4112;SDS011;2070;51.042;7.056;2023-04-15T00:08:14;2.43;;;2.07;;
4112;SDS011;2070;51.042;7.056;2023-04-15T00:10:39;6.93;;;1.57;;
4112;SDS011;2070;51.042;7.056;2023-04-15T00:13:04;9.83;;;2.33;;
4112;SDS011;2070;51.042;7.056;2023-04-15T00:15:29;5.77;;;2.17;;
4112;SDS011;2070;51.042;7.056;2023-04-15T00:17:55;8.67;;;3.10;;
4112;SDS011;2070;51.042;7.056;2023-04-15T00:20:20;4.40;;;2.33;;
4112;SDS011;2070;51.042;7.056;2023-04-15T00:22:46;4.80;;;2.33;;
4112;SDS011;2070;51.042;7.056;2023-04-15T00:25:11;4.03;;;2.70;;
4112;SDS011;2070;51.042;7.056;2023-04-15T00:27:37;3.13;;;2.10;;
4112;SDS011;2070;51.042;7.056;2023-04-15T00:30:02;6.13;;;2.60;;
4112;SDS011;2070;51.042;7.056;2023-04-15T00:32:28;2.30;;;2.07;;
4112;SDS011;2070;51.042;7.056;2023-04-15T00:34:54;6.40;;;2.23;;
4112;SDS011;2070;51.042;7.056;2023-04-15T00:37:19;7.60;;;2.70;;
4112;SDS011;2070;51.042;7.056;2023-04-15T00:39:44;3.20;;;2.50;;
4112;SDS011;2070;51.042;7.056;2023-04-15T00:42:09;4.63;;;2.20;;
4112;SDS011;2070;51.042;7.056;2023-04-15T00:44:35;5.23;;;1.70;;
4112;SDS011;2070;51.042;7.056;2023-04-15T00:47:00;6.63;;;2.50;;
4112;SDS011;2070;51.042;7.056;2023-04-15T00:49:26;3.93;;;2.40;;
4112;SDS011;2070;51.042;7.056;2023-04-15T00:51:53;6.10;;;1.33;;
4112;SDS011;2070;51.042;7.056;2023-04-15T00:54:18;7.47;;;2.10;;
4112;SDS011;2070;51.042;7.056;2023-04-15T00:56:43;5.50;;;1.57;;
4112;SDS011;2070;51.042;7.056;2023-04-15T00:59:08;3.20;;;1.97;;
4112;SDS011;2070;51.042;7.056;2023-04-15T01:01:34;1.60;;;1.47;;
4112;SDS011;2070;51.042;7.056;2023-04-15T01:03:59;4.40;;;2.00;;
4112;SDS011;2070;51.042;7.056;2023-04-15T01:06:25;12.17;;;2.77;;
4112;SDS011;2070;51.042;7.056;2023-04-15T01:08:51;4.33;;;2.80;;
4112;SDS011;2070;51.042;7.056;2023-04-15T01:11:16;5.53;;;2.07;;
4112;SDS011;2070;51.042;7.056;2023-04-15T01:13:42;2.60;;;2.20;;
4112;SDS011;2070;51.042;7.056;2023-04-15T01:16:07;6.17;;;3.47;;
4112;SDS011;2070;51.042;7.056;2023-04-15T01:18:33;5.70;;;2.40;;
4112;SDS011;2070;51.042;7.056;2023-04-15T01:20:59;10.00;;;2.20;;
4112;SDS011;2070;51.042;7.056;2023-04-15T01:23:25;2.53;;;1.97;;
4112;SDS011;2070;51.042;7.056;2023-04-15T01:25:51;3.73;;;1.70;;
4112;SDS011;2070;51.042;7.056;2023-04-15T01:28:17;13.23;;;2.80;;
4112;SDS011;2070;51.042;7.056;2023-04-15T01:30:42;4.10;;;2.80;;
4112;SDS011;2070;51.042;7.056;2023-04-15T01:33:08;2.60;;;2.07;;
4112;SDS011;2070;51.042;7.056;2023-04-15T01:35:33;2.57;;;2.17;;
4112;SDS011;2070;51.042;7.056;2023-04-15T01:38:05;2.40;;;1.87;;
4112;SDS011;2070;51.042;7.056;2023-04-15T01:40:31;2.97;;;2.37;;
4112;SDS011;2070;51.042;7.056;2023-04-15T01:42:56;7.97;;;2.40;;
4112;SDS011;2070;51.042;7.056;2023-04-15T01:45:21;9.37;;;2.20;;
4112;SDS011;2070;51.042;7.056;2023-04-15T01:47:47;3.67;;;2.87;;
4112;SDS011;2070;51.042;7.056;2023-04-15T01:50:13;2.43;;;2.23;;
4112;SDS011;2070;51.042;7.056;2023-04-15T01:52:39;11.30;;;2.43;;
4112;SDS011;2070;51.042;7.056;2023-04-15T01:55:04;2.23;;;2.00;;
4112;SDS011;2070;51.042;7.056;2023-04-15T01:57:30;18.63;;;3.00;;
4112;SDS011;2070;51.042;7.056;2023-04-15T01:59:55;9.23;;;2.43;;
4112;SDS011;2070;51.042;7.056;2023-04-15T02:02:20;2.43;;;1.83;;
4112;SDS011;2070;51.042;7.056;2023-04-15T02:04:45;7.37;;;3.00;;
4112;SDS011;2070;51.042;7.056;2023-04-15T02:07:11;4.80;;;2.10;;
4112;SDS011;2070;51.042;7.056;2023-04-15T02:09:36;2.37;;;2.27;;
4112;SDS011;2070;51.042;7.056;2023-04-15T02:12:01;2.63;;;1.87;;
4112;SDS011;2070;51.042;7.056;2023-04-15T02:14:26;3.30;;;2.30;;
4112;SDS011;2070;51.042;7.056;2023-04-15T02:16:51;2.40;;;2.20;;
4112;SDS011;2070;51.042;7.056;2023-04-15T02:19:17;5.10;;;2.37;;
4112;SDS011;2070;51.042;7.056;2023-04-15T02:21:42;5.83;;;2.63;;
4112;SDS011;2070;51.042;7.056;2023-04-15T02:24:07;4.53;;;3.07;;
4112;SDS011;2070;51.042;7.056;2023-04-15T02:26:33;3.20;;;2.73;;
4112;SDS011;2070;51.042;7.056;2023-04-15T02:28:58;2.83;;;2.40;;
4112;SDS011;2070;51.042;7.056;2023-04-15T02:31:23;3.63;;;1.93;;
4112;SDS011;2070;51.042;7.056;2023-04-15T02:33:49;6.50;;;2.57;;
4112;SDS011;2070;51.042;7.056;2023-04-15T02:36:15;6.83;;;3.03;;
4112;SDS011;2070;51.042;7.056;2023-04-15T02:38:40;4.50;;;2.30;;
4112;SDS011;2070;51.042;7.056;2023-04-15T02:41:07;5.17;;;2.63;;
4112;SDS011;2070;51.042;7.056;2023-04-15T02:43:32;2.83;;;2.60;;
4112;SDS011;2070;51.042;7.056;2023-04-15T02:45:58;2.60;;;2.40;;
4112;SDS011;2070;51.042;7.056;2023-04-15T02:48:23;2.87;;;2.67;;
4112;SDS011;2070;51.042;7.056;2023-04-15T02:50:48;4.70;;;2.17;;
4112;SDS011;2070;51.042;7.056;2023-04-15T02:53:13;5.17;;;2.27;;
4112;SDS011;2070;51.042;7.056;2023-04-15T02:55:39;3.83;;;2.20;;
4112;SDS011;2070;51.042;7.056;2023-04-15T02:58:04;13.83;;;2.67;;
4112;SDS011;2070;51.042;7.056;2023-04-15T03:00:30;5.60;;;2.70;;
4112;SDS011;2070;51.042;7.056;2023-04-15T03:03:00;4.53;;;3.17;;
4112;SDS011;2070;51.042;7.056;2023-04-15T03:05:26;2.60;;;2.17;;
4112;SDS011;2070;51.042;7.056;2023-04-15T03:07:51;6.80;;;2.80;;
4112;SDS011;2070;51.042;7.056;2023-04-15T03:10:16;6.00;;;2.17;;
4112;SDS011;2070;51.042;7.056;2023-04-15T03:12:41;4.30;;;2.10;;
4112;SDS011;2070;51.042;7.056;2023-04-15T03:15:07;3.70;;;3.33;;
4112;SDS011;2070;51.042;7.056;2023-04-15T03:17:32;7.27;;;2.30;;
4112;SDS011;2070;51.042;7.056;2023-04-15T03:19:58;2.77;;;2.07;;
4112;SDS011;2070;51.042;7.056;2023-04-15T03:22:23;5.73;;;4.40;;
4112;SDS011;2070;51.042;7.056;2023-04-15T03:24:49;2.60;;;2.20;;
4112;SDS011;2070;51.042;7.056;2023-04-15T03:27:14;2.87;;;2.13;;
4112;SDS011;2070;51.042;7.056;2023-04-15T03:29:39;2.60;;;2.50;;
4112;SDS011;2070;51.042;7.056;2023-04-15T03:32:05;3.23;;;2.73;;
4112;SDS011;2070;51.042;7.056;2023-04-15T03:34:30;5.60;;;3.10;;
4112;SDS011;2070;51.042;7.056;2023-04-15T03:36:56;3.67;;;3.27;;
4112;SDS011;2070;51.042;7.056;2023-04-15T03:39:21;9.50;;;2.17;;
4112;SDS011;2070;51.042;7.056;2023-04-15T03:41:46;9.30;;;3.03;;
4112;SDS011;2070;51.042;7.056;2023-04-15T03:44:11;6.93;;;2.20;;
4112;SDS011;2070;51.042;7.056;2023-04-15T03:46:36;4.63;;;2.80;;
4112;SDS011;2070;51.042;7.056;2023-04-15T03:49:02;2.83;;;2.47;;
4112;SDS011;2070;51.042;7.056;2023-04-15T03:51:27;4.17;;;2.37;;
4112;SDS011;2070;51.042;7.056;2023-04-15T03:53:52;2.67;;;2.23;;
4112;SDS011;2070;51.042;7.056;2023-04-15T03:56:17;3.73;;;1.90;;
4112;SDS011;2070;51.042;7.056;2023-04-15T03:58:42;9.10;;;2.80;;
4112;SDS011;2070;51.042;7.056;2023-04-15T04:01:08;4.97;;;2.70;;
4112;SDS011;2070;51.042;7.056;2023-04-15T04:03:33;3.60;;;2.60;;
4112;SDS011;2070;51.042;7.056;2023-04-15T04:05:58;4.80;;;3.00;;
4112;SDS011;2070;51.042;7.056;2023-04-15T04:08:23;6.00;;;3.10;;
4112;SDS011;2070;51.042;7.056;2023-04-15T04:10:48;8.20;;;3.50;;
4112;SDS011;2070;51.042;7.056;2023-04-15T04:13:14;8.73;;;2.70;;
4112;SDS011;2070;51.042;7.056;2023-04-15T04:15:39;7.70;;;3.60;;
4112;SDS011;2070;51.042;7.056;2023-04-15T04:18:04;3.67;;;3.27;;
4112;SDS011;2070;51.042;7.056;2023-04-15T04:20:30;4.70;;;2.97;;
4112;SDS011;2070;51.042;7.056;2023-04-15T04:22:58;7.93;;;3.30;;
4112;SDS011;2070;51.042;7.056;2023-04-15T04:25:23;4.50;;;2.97;;
4112;SDS011;2070;51.042;7.056;2023-04-15T04:27:48;3.27;;;2.77;;
4112;SDS011;2070;51.042;7.056;2023-04-15T04:30:13;4.73;;;2.03;;
4112;SDS011;2070;51.042;7.056;2023-04-15T04:32:38;5.10;;;2.93;;
4112;SDS011;2070;51.042;7.056;2023-04-15T04:35:04;10.20;;;3.80;;
4112;SDS011;2070;51.042;7.056;2023-04-15T04:37:29;5.80;;;3.13;;
4112;SDS011;2070;51.042;7.056;2023-04-15T04:39:54;6.53;;;4.00;;
4112;SDS011;2070;51.042;7.056;2023-04-15T04:42:20;6.33;;;3.50;;
4112;SDS011;2070;51.042;7.056;2023-04-15T04:44:45;6.20;;;3.80;;
4112;SDS011;2070;51.042;7.056;2023-04-15T04:47:11;5.47;;;3.33;;
4112;SDS011;2070;51.042;7.056;2023-04-15T04:49:36;11.20;;;3.70;;
4112;SDS011;2070;51.042;7.056;2023-04-15T04:52:01;6.20;;;3.30;;
4112;SDS011;2070;51.042;7.056;2023-04-15T04:54:26;10.17;;;3.00;;
4112;SDS011;2070;51.042;7.056;2023-04-15T04:56:52;7.70;;;2.93;;
4112;SDS011;2070;51.042;7.056;2023-04-15T04:59:17;8.40;;;4.10;;
4112;SDS011;2070;51.042;7.056;2023-04-15T05:01:42;5.13;;;3.80;;
4112;SDS011;2070;51.042;7.056;2023-04-15T05:04:07;8.83;;;3.73;;
4112;SDS011;2070;51.042;7.056;2023-04-15T05:06:33;4.93;;;3.23;;
4112;SDS011;2070;51.042;7.056;2023-04-15T05:08:59;13.07;;;2.90;;
4112;SDS011;2070;51.042;7.056;2023-04-15T05:11:25;4.10;;;3.70;;
4112;SDS011;2070;51.042;7.056;2023-04-15T05:13:50;8.30;;;4.00;;
4112;SDS011;2070;51.042;7.056;2023-04-15T05:16:15;9.83;;;3.13;;
4112;SDS011;2070;51.042;7.056;2023-04-15T05:18:41;3.53;;;3.27;;
4112;SDS011;2070;51.042;7.056;2023-04-15T05:21:06;4.70;;;4.10;;
4112;SDS011;2070;51.042;7.056;2023-04-15T05:23:31;12.20;;;5.20;;
4112;SDS011;2070;51.042;7.056;2023-04-15T05:25:56;8.73;;;3.90;;
4112;SDS011;2070;51.042;7.056;2023-04-15T05:28:22;5.90;;;3.60;;
4112;SDS011;2070;51.042;7.056;2023-04-15T05:30:47;16.43;;;3.43;;
4112;SDS011;2070;51.042;7.056;2023-04-15T05:33:12;4.97;;;3.33;;
4112;SDS011;2070;51.042;7.056;2023-04-15T05:35:37;4.30;;;3.37;;
4112;SDS011;2070;51.042;7.056;2023-04-15T05:38:02;4.93;;;3.17;;
4112;SDS011;2070;51.042;7.056;2023-04-15T05:40:29;8.87;;;3.80;;
4112;SDS011;2070;51.042;7.056;2023-04-15T05:42:54;3.87;;;3.43;;
4112;SDS011;2070;51.042;7.056;2023-04-15T05:45:19;5.10;;;4.53;;
4112;SDS011;2070;51.042;7.056;2023-04-15T05:47:45;14.43;;;4.00;;
4112;SDS011;2070;51.042;7.056;2023-04-15T05:50:10;22.40;;;5.13;;
4112;SDS011;2070;51.042;7.056;2023-04-15T05:52:36;8.27;;;4.30;;
4112;SDS011;2070;51.042;7.056;2023-04-15T05:55:01;5.10;;;4.13;;
4112;SDS011;2070;51.042;7.056;2023-04-15T05:57:26;10.50;;;5.40;;
4112;SDS011;2070;51.042;7.056;2023-04-15T05:59:51;9.87;;;5.00;;
4112;SDS011;2070;51.042;7.056;2023-04-15T06:02:17;7.47;;;2.77;;
4112;SDS011;2070;51.042;7.056;2023-04-15T06:04:42;4.23;;;2.87;;
4112;SDS011;2070;51.042;7.056;2023-04-15T06:07:07;8.33;;;4.57;;
4112;SDS011;2070;51.042;7.056;2023-04-15T06:09:33;5.97;;;3.80;;
4112;SDS011;2070;51.042;7.056;2023-04-15T06:11:58;8.60;;;5.00;;
4112;SDS011;2070;51.042;7.056;2023-04-15T06:14:23;6.37;;;4.90;;
4112;SDS011;2070;51.042;7.056;2023-04-15T06:16:49;8.53;;;5.07;;
4112;SDS011;2070;51.042;7.056;2023-04-15T06:19:14;5.57;;;4.27;;
4112;SDS011;2070;51.042;7.056;2023-04-15T06:21:39;7.20;;;3.73;;
4112;SDS011;2070;51.042;7.056;2023-04-15T06:24:05;8.83;;;3.87;;
4112;SDS011;2070;51.042;7.056;2023-04-15T06:26:30;7.93;;;4.50;;
4112;SDS011;2070;51.042;7.056;2023-04-15T06:28:55;7.60;;;3.77;;
4112;SDS011;2070;51.042;7.056;2023-04-15T06:31:21;13.97;;;3.97;;
4112;SDS011;2070;51.042;7.056;2023-04-15T06:33:46;5.47;;;4.73;;
4112;SDS011;2070;51.042;7.056;2023-04-15T06:36:11;5.83;;;4.07;;
4112;SDS011;2070;51.042;7.056;2023-04-15T06:38:36;5.43;;;4.20;;
4112;SDS011;2070;51.042;7.056;2023-04-15T06:41:02;6.50;;;3.63;;
4112;SDS011;2070;51.042;7.056;2023-04-15T06:43:27;5.73;;;3.73;;
4112;SDS011;2070;51.042;7.056;2023-04-15T06:45:52;7.37;;;4.27;;
4112;SDS011;2070;51.042;7.056;2023-04-15T06:48:18;3.50;;;2.50;;
4112;SDS011;2070;51.042;7.056;2023-04-15T06:50:43;3.93;;;3.60;;
4112;SDS011;2070;51.042;7.056;2023-04-15T06:53:08;11.67;;;4.07;;
4112;SDS011;2070;51.042;7.056;2023-04-15T06:55:33;6.90;;;4.50;;
4112;SDS011;2070;51.042;7.056;2023-04-15T06:57:59;4.07;;;3.40;;
4112;SDS011;2070;51.042;7.056;2023-04-15T07:00:24;4.23;;;3.43;;
4112;SDS011;2070;51.042;7.056;2023-04-15T07:02:50;6.53;;;4.57;;
4112;SDS011;2070;51.042;7.056;2023-04-15T07:05:15;4.50;;;2.87;;
4112;SDS011;2070;51.042;7.056;2023-04-15T07:07:40;3.90;;;3.20;;
4112;SDS011;2070;51.042;7.056;2023-04-15T07:10:06;4.83;;;4.20;;
4112;SDS011;2070;51.042;7.056;2023-04-15T07:12:31;10.80;;;4.17;;
4112;SDS011;2070;51.042;7.056;2023-04-15T07:14:56;4.13;;;3.53;;
4112;SDS011;2070;51.042;7.056;2023-04-15T07:17:22;6.03;;;3.77;;
4112;SDS011;2070;51.042;7.056;2023-04-15T07:19:47;4.10;;;3.20;;
4112;SDS011;2070;51.042;7.056;2023-04-15T07:22:12;4.80;;;3.40;;
4112;SDS011;2070;51.042;7.056;2023-04-15T07:24:37;4.93;;;3.37;;
4112;SDS011;2070;51.042;7.056;2023-04-15T07:27:02;4.20;;;3.40;;
4112;SDS011;2070;51.042;7.056;2023-04-15T07:29:28;3.03;;;2.83;;
4112;SDS011;2070;51.042;7.056;2023-04-15T07:31:53;2.60;;;2.20;;
4112;SDS011;2070;51.042;7.056;2023-04-15T07:34:18;6.20;;;2.70;;
4112;SDS011;2070;51.042;7.056;2023-04-15T07:36:44;3.93;;;2.80;;
4112;SDS011;2070;51.042;7.056;2023-04-15T07:39:10;4.43;;;2.27;;
4112;SDS011;2070;51.042;7.056;2023-04-15T07:41:35;3.70;;;3.23;;
4112;SDS011;2070;51.042;7.056;2023-04-15T07:44:00;4.10;;;2.33;;
4112;SDS011;2070;51.042;7.056;2023-04-15T07:46:26;3.77;;;2.67;;
4112;SDS011;2070;51.042;7.056;2023-04-15T07:48:52;2.53;;;2.23;;
4112;SDS011;2070;51.042;7.056;2023-04-15T07:51:18;20.83;;;2.53;;
4112;SDS011;2070;51.042;7.056;2023-04-15T07:53:43;3.40;;;2.07;;
4112;SDS011;2070;51.042;7.056;2023-04-15T07:56:09;6.07;;;2.33;;
4112;SDS011;2070;51.042;7.056;2023-04-15T07:58:34;6.07;;;2.30;;
4112;SDS011;2070;51.042;7.056;2023-04-15T08:00:59;5.20;;;2.20;;
4112;SDS011;2070;51.042;7.056;2023-04-15T08:03:24;2.30;;;2.10;;
4112;SDS011;2070;51.042;7.056;2023-04-15T08:05:50;2.37;;;2.17;;
4112;SDS011;2070;51.042;7.056;2023-04-15T08:08:15;4.37;;;2.00;;
4112;SDS011;2070;51.042;7.056;2023-04-15T08:10:40;2.97;;;1.80;;
4112;SDS011;2070;51.042;7.056;2023-04-15T08:13:06;3.20;;;2.43;;
4112;SDS011;2070;51.042;7.056;2023-04-15T08:15:31;6.07;;;3.00;;
4112;SDS011;2070;51.042;7.056;2023-04-15T08:17:57;6.50;;;2.07;;
4112;SDS011;2070;51.042;7.056;2023-04-15T08:20:24;3.50;;;2.10;;
4112;SDS011;2070;51.042;7.056;2023-04-15T08:22:49;3.43;;;2.40;;
4112;SDS011;2070;51.042;7.056;2023-04-15T08:25:16;4.13;;;2.03;;
4112;SDS011;2070;51.042;7.056;2023-04-15T08:27:41;2.70;;;2.10;;
4112;SDS011;2070;51.042;7.056;2023-04-15T08:30:06;2.57;;;1.60;;
4112;SDS011;2070;51.042;7.056;2023-04-15T08:32:32;2.63;;;1.70;;
4112;SDS011;2070;51.042;7.056;2023-04-15T08:34:57;1.80;;;1.30;;
4112;SDS011;2070;51.042;7.056;2023-04-15T08:37:22;2.23;;;1.50;;
4112;SDS011;2070;51.042;7.056;2023-04-15T08:39:48;3.23;;;1.70;;
4112;SDS011;2070;51.042;7.056;2023-04-15T08:42:16;6.23;;;1.17;;
4112;SDS011;2070;51.042;7.056;2023-04-15T08:44:42;1.80;;;1.60;;
4112;SDS011;2070;51.042;7.056;2023-04-15T08:47:08;3.80;;;1.23;;
4112;SDS011;2070;51.042;7.056;2023-04-15T08:49:38;2.63;;;1.57;;
4112;SDS011;2070;51.042;7.056;2023-04-15T08:52:03;4.10;;;1.70;;
4112;SDS011;2070;51.042;7.056;2023-04-15T08:54:30;3.83;;;2.27;;
4112;SDS011;2070;51.042;7.056;2023-04-15T08:56:56;3.43;;;2.10;;
4112;SDS011;2070;51.042;7.056;2023-04-15T08:59:21;2.60;;;2.40;;
4112;SDS011;2070;51.042;7.056;2023-04-15T09:01:48;3.10;;;2.13;;
4112;SDS011;2070;51.042;7.056;2023-04-15T09:04:14;3.00;;;2.40;;
4112;SDS011;2070;51.042;7.056;2023-04-15T09:06:40;2.63;;;2.40;;
4112;SDS011;2070;51.042;7.056;2023-04-15T09:09:05;4.50;;;3.77;;
4112;SDS011;2070;51.042;7.056;2023-04-15T09:11:30;5.17;;;2.87;;
4112;SDS011;2070;51.042;7.056;2023-04-15T09:13:56;3.73;;;2.40;;
4112;SDS011;2070;51.042;7.056;2023-04-15T09:16:21;11.60;;;2.53;;
4112;SDS011;2070;51.042;7.056;2023-04-15T09:18:47;5.10;;;2.70;;
4112;SDS011;2070;51.042;7.056;2023-04-15T09:21:13;7.40;;;3.00;;
4112;SDS011;2070;51.042;7.056;2023-04-15T09:23:40;2.27;;;2.07;;
4112;SDS011;2070;51.042;7.056;2023-04-15T09:26:06;1.97;;;1.77;;
4112;SDS011;2070;51.042;7.056;2023-04-15T09:28:31;5.67;;;1.83;;
4112;SDS011;2070;51.042;7.056;2023-04-15T09:30:57;2.37;;;1.77;;
4112;SDS011;2070;51.042;7.056;2023-04-15T09:33:23;1.83;;;1.40;;
4112;SDS011;2070;51.042;7.056;2023-04-15T09:35:56;3.50;;;2.23;;
4112;SDS011;2070;51.042;7.056;2023-04-15T09:38:22;2.10;;;1.43;;
4112;SDS011;2070;51.042;7.056;2023-04-15T09:40:47;1.90;;;1.63;;
4112;SDS011;2070;51.042;7.056;2023-04-15T09:43:13;4.23;;;2.47;;
4112;SDS011;2070;51.042;7.056;2023-04-15T09:45:38;4.47;;;1.80;;
4112;SDS011;2070;51.042;7.056;2023-04-15T09:48:14;2.30;;;1.27;;
4112;SDS011;2070;51.042;7.056;2023-04-15T09:50:41;9.40;;;1.77;;
4112;SDS011;2070;51.042;7.056;2023-04-15T09:53:08;4.30;;;2.00;;
4112;SDS011;2070;51.042;7.056;2023-04-15T09:55:33;4.40;;;3.37;;
4112;SDS011;2070;51.042;7.056;2023-04-15T09:57:58;5.87;;;2.17;;
4112;SDS011;2070;51.042;7.056;2023-04-15T10:00:23;4.97;;;2.87;;
4112;SDS011;2070;51.042;7.056;2023-04-15T10:02:49;4.37;;;2.60;;
4112;SDS011;2070;51.042;7.056;2023-04-15T10:05:15;4.90;;;2.77;;
4112;SDS011;2070;51.042;7.056;2023-04-15T10:07:41;2.70;;;2.43;;
4112;SDS011;2070;51.042;7.056;2023-04-15T10:10:07;3.77;;;2.23;;
4112;SDS011;2070;51.042;7.056;2023-04-15T10:12:33;2.87;;;2.50;;
4112;SDS011;2070;51.042;7.056;2023-04-15T10:15:00;6.53;;;3.60;;
4112;SDS011;2070;51.042;7.056;2023-04-15T10:17:27;7.13;;;3.20;;
4112;SDS011;2070;51.042;7.056;2023-04-15T10:19:59;3.30;;;2.60;;
4112;SDS011;2070;51.042;7.056;2023-04-15T10:22:25;4.97;;;3.20;;
4112;SDS011;2070;51.042;7.056;2023-04-15T10:24:51;4.23;;;3.50;;
4112;SDS011;2070;51.042;7.056;2023-04-15T10:27:16;4.57;;;3.33;;
4112;SDS011;2070;51.042;7.056;2023-04-15T10:29:41;5.27;;;2.63;;
4112;SDS011;2070;51.042;7.056;2023-04-15T10:32:07;3.27;;;2.63;;
4112;SDS011;2070;51.042;7.056;2023-04-15T10:34:33;5.80;;;2.60;;
4112;SDS011;2070;51.042;7.056;2023-04-15T10:37:02;6.73;;;3.70;;
4112;SDS011;2070;51.042;7.056;2023-04-15T10:42:05;3.53;;;2.20;;
4112;SDS011;2070;51.042;7.056;2023-04-15T10:44:31;16.93;;;5.40;;
4112;SDS011;2070;51.042;7.056;2023-04-15T10:46:56;2.77;;;2.50;;
4112;SDS011;2070;51.042;7.056;2023-04-15T10:49:25;4.13;;;2.43;;
4112;SDS011;2070;51.042;7.056;2023-04-15T10:51:52;3.07;;;2.53;;
4112;SDS011;2070;51.042;7.056;2023-04-15T10:56:52;3.73;;;1.90;;
4112;SDS011;2070;51.042;7.056;2023-04-15T11:00:16;2.10;;;1.93;;
4112;SDS011;2070;51.042;7.056;2023-04-15T11:02:16;5.13;;;1.97;;
4112;SDS011;2070;51.042;7.056;2023-04-15T11:04:51;2.37;;;2.17;;
4112;SDS011;2070;51.042;7.056;2023-04-15T11:09:57;3.13;;;2.60;;
4112;SDS011;2070;51.042;7.056;2023-04-15T11:12:22;3.07;;;2.70;;
4112;SDS011;2070;51.042;7.056;2023-04-15T11:14:57;2.20;;;2.00;;
4112;SDS011;2070;51.042;7.056;2023-04-15T11:17:26;1.80;;;1.70;;
4112;SDS011;2070;51.042;7.056;2023-04-15T11:19:51;3.10;;;2.30;;
4112;SDS011;2070;51.042;7.056;2023-04-15T11:22:16;4.20;;;2.30;;
4112;SDS011;2070;51.042;7.056;2023-04-15T11:24:48;2.57;;;2.37;;
4112;SDS011;2070;51.042;7.056;2023-04-15T11:27:21;2.47;;;2.00;;
4112;SDS011;2070;51.042;7.056;2023-04-15T11:29:46;2.73;;;2.53;;
4112;SDS011;2070;51.042;7.056;2023-04-15T11:32:11;3.30;;;2.73;;
4112;SDS011;2070;51.042;7.056;2023-04-15T11:34:36;2.40;;;2.20;;
4112;SDS011;2070;51.042;7.056;2023-04-15T11:37:05;2.03;;;1.83;;
4112;SDS011;2070;51.042;7.056;2023-04-15T11:39:30;3.83;;;3.17;;
4112;SDS011;2070;51.042;7.056;2023-04-15T11:41:56;2.50;;;2.30;;
4112;SDS011;2070;51.042;7.056;2023-04-15T11:44:21;3.80;;;3.00;;
4112;SDS011;2070;51.042;7.056;2023-04-15T11:46:46;3.77;;;2.50;;
4112;SDS011;2070;51.042;7.056;2023-04-15T11:49:11;3.13;;;2.73;;
4112;SDS011;2070;51.042;7.056;2023-04-15T11:51:49;2.90;;;2.70;;
4112;SDS011;2070;51.042;7.056;2023-04-15T11:54:17;2.63;;;2.17;;
4112;SDS011;2070;51.042;7.056;2023-04-15T11:56:42;4.27;;;2.90;;
4112;SDS011;2070;51.042;7.056;2023-04-15T11:59:14;4.70;;;2.70;;
4112;SDS011;2070;51.042;7.056;2023-04-15T12:01:39;3.20;;;2.50;;
4112;SDS011;2070;51.042;7.056;2023-04-15T12:04:09;2.50;;;2.30;;
4112;SDS011;2070;51.042;7.056;2023-04-15T12:06:35;2.10;;;1.93;;
4112;SDS011;2070;51.042;7.056;2023-04-15T12:11:46;2.43;;;2.23;;
4112;SDS011;2070;51.042;7.056;2023-04-15T12:16:41;2.20;;;2.10;;
4112;SDS011;2070;51.042;7.056;2023-04-15T12:19:10;2.50;;;2.30;;
4112;SDS011;2070;51.042;7.056;2023-04-15T12:21:37;2.50;;;2.10;;
4112;SDS011;2070;51.042;7.056;2023-04-15T12:24:03;5.37;;;2.80;;
4112;SDS011;2070;51.042;7.056;2023-04-15T12:31:25;4.73;;;2.27;;
4112;SDS011;2070;51.042;7.056;2023-04-15T12:33:50;2.50;;;2.30;;
4112;SDS011;2070;51.042;7.056;2023-04-15T12:36:16;3.30;;;2.33;;
4112;SDS011;2070;51.042;7.056;2023-04-15T12:38:41;2.20;;;2.00;;
4112;SDS011;2070;51.042;7.056;2023-04-15T12:41:06;2.37;;;2.17;;
4112;SDS011;2070;51.042;7.056;2023-04-15T12:43:31;5.07;;;3.53;;
4112;SDS011;2070;51.042;7.056;2023-04-15T12:45:56;2.93;;;2.70;;
4112;SDS011;2070;51.042;7.056;2023-04-15T12:48:22;3.73;;;3.47;;
4112;SDS011;2070;51.042;7.056;2023-04-15T12:50:47;8.83;;;4.70;;
4112;SDS011;2070;51.042;7.056;2023-04-15T12:53:12;4.93;;;4.40;;
4112;SDS011;2070;51.042;7.056;2023-04-15T12:55:37;4.73;;;4.20;;
4112;SDS011;2070;51.042;7.056;2023-04-15T12:58:02;4.77;;;4.30;;
4112;SDS011;2070;51.042;7.056;2023-04-15T13:00:28;8.73;;;5.57;;
4112;SDS011;2070;51.042;7.056;2023-04-15T13:02:53;5.10;;;4.40;;
4112;SDS011;2070;51.042;7.056;2023-04-15T13:05:18;6.43;;;5.83;;
4112;SDS011;2070;51.042;7.056;2023-04-15T13:07:43;5.53;;;4.73;;
4112;SDS011;2070;51.042;7.056;2023-04-15T13:10:09;10.80;;;5.17;;
4112;SDS011;2070;51.042;7.056;2023-04-15T13:12:34;5.13;;;4.60;;
4112;SDS011;2070;51.042;7.056;2023-04-15T13:15:02;5.20;;;4.70;;
4112;SDS011;2070;51.042;7.056;2023-04-15T13:17:28;5.00;;;4.60;;
4112;SDS011;2070;51.042;7.056;2023-04-15T13:19:54;4.60;;;4.30;;
4112;SDS011;2070;51.042;7.056;2023-04-15T13:22:19;6.73;;;4.43;;
4112;SDS011;2070;51.042;7.056;2023-04-15T13:24:45;6.77;;;5.30;;
4112;SDS011;2070;51.042;7.056;2023-04-15T13:27:10;6.93;;;5.73;;
4112;SDS011;2070;51.042;7.056;2023-04-15T13:29:36;5.10;;;4.60;;
4112;SDS011;2070;51.042;7.056;2023-04-15T13:32:01;5.80;;;4.97;;
4112;SDS011;2070;51.042;7.056;2023-04-15T13:34:26;6.17;;;4.83;;
4112;SDS011;2070;51.042;7.056;2023-04-15T13:36:52;5.90;;;5.20;;
4112;SDS011;2070;51.042;7.056;2023-04-15T13:39:17;5.47;;;4.97;;
4112;SDS011;2070;51.042;7.056;2023-04-15T13:41:42;5.17;;;4.67;;
4112;SDS011;2070;51.042;7.056;2023-04-15T13:44:07;8.13;;;5.37;;
4112;SDS011;2070;51.042;7.056;2023-04-15T13:46:32;8.03;;;7.23;;
4112;SDS011;2070;51.042;7.056;2023-04-15T13:48:58;7.57;;;5.60;;
4112;SDS011;2070;51.042;7.056;2023-04-15T13:51:23;6.50;;;5.10;;
4112;SDS011;2070;51.042;7.056;2023-04-15T13:53:48;6.90;;;5.43;;
4112;SDS011;2070;51.042;7.056;2023-04-15T13:56:13;8.53;;;6.80;;
4112;SDS011;2070;51.042;7.056;2023-04-15T13:58:39;7.93;;;7.17;;
4112;SDS011;2070;51.042;7.056;2023-04-15T14:01:04;9.13;;;6.63;;
4112;SDS011;2070;51.042;7.056;2023-04-15T14:03:30;9.23;;;7.10;;
4112;SDS011;2070;51.042;7.056;2023-04-15T14:05:55;9.77;;;7.47;;
4112;SDS011;2070;51.042;7.056;2023-04-15T14:08:22;8.23;;;6.60;;
4112;SDS011;2070;51.042;7.056;2023-04-15T14:10:47;7.80;;;6.77;;
4112;SDS011;2070;51.042;7.056;2023-04-15T14:13:13;8.10;;;6.80;;
4112;SDS011;2070;51.042;7.056;2023-04-15T14:15:39;10.37;;;6.80;;
4112;SDS011;2070;51.042;7.056;2023-04-15T14:18:04;6.70;;;6.07;;
4112;SDS011;2070;51.042;7.056;2023-04-15T14:20:29;6.10;;;5.40;;
4112;SDS011;2070;51.042;7.056;2023-04-15T14:22:54;6.43;;;5.80;;
4112;SDS011;2070;51.042;7.056;2023-04-15T14:25:20;6.20;;;5.00;;
4112;SDS011;2070;51.042;7.056;2023-04-15T14:27:45;7.20;;;4.23;;
4112;SDS011;2070;51.042;7.056;2023-04-15T14:30:10;9.43;;;4.30;;
4112;SDS011;2070;51.042;7.056;2023-04-15T14:32:36;6.50;;;3.50;;
4112;SDS011;2070;51.042;7.056;2023-04-15T14:35:01;8.00;;;3.93;;
4112;SDS011;2070;51.042;7.056;2023-04-15T14:37:28;4.23;;;3.30;;
4112;SDS011;2070;51.042;7.056;2023-04-15T14:39:53;3.10;;;2.77;;
4112;SDS011;2070;51.042;7.056;2023-04-15T14:42:18;2.70;;;2.50;;
4112;SDS011;2070;51.042;7.056;2023-04-15T14:44:43;3.33;;;3.03;;
4112;SDS011;2070;51.042;7.056;2023-04-15T14:47:08;3.27;;;2.97;;
4112;SDS011;2070;51.042;7.056;2023-04-15T14:49:34;5.60;;;2.77;;
4112;SDS011;2070;51.042;7.056;2023-04-15T14:51:59;3.60;;;2.93;;
4112;SDS011;2070;51.042;7.056;2023-04-15T14:54:24;3.73;;;3.00;;
4112;SDS011;2070;51.042;7.056;2023-04-15T14:56:49;5.30;;;3.10;;
4112;SDS011;2070;51.042;7.056;2023-04-15T14:59:15;3.40;;;2.27;;
4112;SDS011;2070;51.042;7.056;2023-04-15T15:01:40;2.90;;;2.63;;
4112;SDS011;2070;51.042;7.056;2023-04-15T15:04:05;2.43;;;2.20;;
4112;SDS011;2070;51.042;7.056;2023-04-15T15:06:30;14.53;;;2.83;;
4112;SDS011;2070;51.042;7.056;2023-04-15T15:08:56;4.70;;;3.60;;
4112;SDS011;2070;51.042;7.056;2023-04-15T15:11:21;4.90;;;2.80;;
4112;SDS011;2070;51.042;7.056;2023-04-15T15:13:46;5.13;;;2.87;;
4112;SDS011;2070;51.042;7.056;2023-04-15T15:16:11;5.60;;;3.23;;
4112;SDS011;2070;51.042;7.056;2023-04-15T15:18:36;4.37;;;2.40;;
4112;SDS011;2070;51.042;7.056;2023-04-15T15:21:02;3.47;;;2.43;;
4112;SDS011;2070;51.042;7.056;2023-04-15T15:23:27;4.50;;;3.10;;